sensor_id;sensor_type;location;lat;lon;timestamp;temperature;humidity
65378;SHT31;51982;51.042;13.806;2022-07-17T00:00:12;17.21;59.57
65378;SHT31;51982;51.042;13.806;2022-07-17T00:02:37;17.18;59.79
65378;SHT31;51982;51.042;13.806;2022-07-17T00:05:03;17.16;59.92
65378;SHT31;51982;51.042;13.806;2022-07-17T00:07:28;17.15;60.01
65378;SHT31;51982;51.042;13.806;2022-07-17T00:09:53;17.11;60.24
65378;SHT31;51982;51.042;13.806;2022-07-17T00:12:19;17.11;60.34
65378;SHT31;51982;51.042;13.806;2022-07-17T00:14:44;17.07;60.48
65378;SHT31;51982;51.042;13.806;2022-07-17T00:17:09;17.04;60.50
65378;SHT31;51982;51.042;13.806;2022-07-17T00:19:35;17.01;60.43
65378;SHT31;51982;51.042;13.806;2022-07-17T00:22:00;16.98;60.42
65378;SHT31;51982;51.042;13.806;2022-07-17T00:24:27;16.94;60.50
65378;SHT31;51982;51.042;13.806;2022-07-17T00:26:53;16.89;60.53
65378;SHT31;51982;51.042;13.806;2022-07-17T00:29:19;16.84;60.58
65378;SHT31;51982;51.042;13.806;2022-07-17T00:31:44;16.85;60.66
65378;SHT31;51982;51.042;13.806;2022-07-17T00:34:10;16.82;60.79
65378;SHT31;51982;51.042;13.806;2022-07-17T00:36:35;16.85;60.97
65378;SHT31;51982;51.042;13.806;2022-07-17T00:39:00;16.81;60.93
65378;SHT31;51982;51.042;13.806;2022-07-17T00:41:26;16.78;61.00
65378;SHT31;51982;51.042;13.806;2022-07-17T00:43:51;16.77;60.97
65378;SHT31;51982;51.042;13.806;2022-07-17T00:46:17;16.74;60.99
65378;SHT31;51982;51.042;13.806;2022-07-17T00:48:42;16.69;61.10
65378;SHT31;51982;51.042;13.806;2022-07-17T00:51:07;16.65;61.16
65378;SHT31;51982;51.042;13.806;2022-07-17T00:53:35;16.63;61.26
65378;SHT31;51982;51.042;13.806;2022-07-17T00:56:02;16.60;61.42
65378;SHT31;51982;51.042;13.806;2022-07-17T00:58:28;16.54;61.51
65378;SHT31;51982;51.042;13.806;2022-07-17T01:00:54;16.48;61.55
65378;SHT31;51982;51.042;13.806;2022-07-17T01:03:23;16.47;61.70
65378;SHT31;51982;51.042;13.806;2022-07-17T01:05:49;16.47;61.74
65378;SHT31;51982;51.042;13.806;2022-07-17T01:08:14;16.40;61.89
65378;SHT31;51982;51.042;13.806;2022-07-17T01:10:40;16.40;61.94
65378;SHT31;51982;51.042;13.806;2022-07-17T01:13:05;16.36;61.99
65378;SHT31;51982;51.042;13.806;2022-07-17T01:15:37;16.31;62.17
65378;SHT31;51982;51.042;13.806;2022-07-17T01:18:08;16.31;62.08
65378;SHT31;51982;51.042;13.806;2022-07-17T01:20:35;16.30;61.85
65378;SHT31;51982;51.042;13.806;2022-07-17T01:23:01;16.24;61.84
65378;SHT31;51982;51.042;13.806;2022-07-17T01:25:26;16.21;61.76
65378;SHT31;51982;51.042;13.806;2022-07-17T01:27:51;16.20;61.69
65378;SHT31;51982;51.042;13.806;2022-07-17T01:30:17;16.17;61.78
65378;SHT31;51982;51.042;13.806;2022-07-17T01:32:43;16.14;61.70
65378;SHT31;51982;51.042;13.806;2022-07-17T01:35:10;16.12;61.68
65378;SHT31;51982;51.042;13.806;2022-07-17T01:37:37;16.10;61.70
65378;SHT31;51982;51.042;13.806;2022-07-17T01:40:02;16.10;61.77
65378;SHT31;51982;51.042;13.806;2022-07-17T01:42:28;16.09;61.74
65378;SHT31;51982;51.042;13.806;2022-07-17T01:44:54;16.05;61.74
65378;SHT31;51982;51.042;13.806;2022-07-17T01:47:20;16.03;61.85
65378;SHT31;51982;51.042;13.806;2022-07-17T01:49:52;15.99;61.98
65378;SHT31;51982;51.042;13.806;2022-07-17T01:52:18;15.96;61.93
65378;SHT31;51982;51.042;13.806;2022-07-17T01:54:44;15.96;62.04
65378;SHT31;51982;51.042;13.806;2022-07-17T01:57:10;15.92;62.14
65378;SHT31;51982;51.042;13.806;2022-07-17T01:59:36;15.89;62.17
65378;SHT31;51982;51.042;13.806;2022-07-17T02:02:03;15.85;62.20
65378;SHT31;51982;51.042;13.806;2022-07-17T02:04:30;15.83;62.40
65378;SHT31;51982;51.042;13.806;2022-07-17T02:06:55;15.81;62.56
65378;SHT31;51982;51.042;13.806;2022-07-17T02:09:21;15.79;62.67
65378;SHT31;51982;51.042;13.806;2022-07-17T02:11:46;15.81;62.62
65378;SHT31;51982;51.042;13.806;2022-07-17T02:14:12;15.76;62.66
65378;SHT31;51982;51.042;13.806;2022-07-17T02:16:37;15.70;62.67
65378;SHT31;51982;51.042;13.806;2022-07-17T02:19:02;15.72;62.74
65378;SHT31;51982;51.042;13.806;2022-07-17T02:21:27;15.61;63.23
65378;SHT31;51982;51.042;13.806;2022-07-17T02:23:53;15.59;63.54
65378;SHT31;51982;51.042;13.806;2022-07-17T02:26:18;15.55;63.90
65378;SHT31;51982;51.042;13.806;2022-07-17T02:28:46;15.48;64.43
65378;SHT31;51982;51.042;13.806;2022-07-17T02:31:11;15.49;64.71
65378;SHT31;51982;51.042;13.806;2022-07-17T02:33:36;15.42;64.95
65378;SHT31;51982;51.042;13.806;2022-07-17T02:36:02;15.44;65.17
65378;SHT31;51982;51.042;13.806;2022-07-17T02:38:28;15.36;65.46
65378;SHT31;51982;51.042;13.806;2022-07-17T02:40:53;15.31;65.56
65378;SHT31;51982;51.042;13.806;2022-07-17T02:43:18;15.28;65.60
65378;SHT31;51982;51.042;13.806;2022-07-17T02:45:43;15.28;65.62
65378;SHT31;51982;51.042;13.806;2022-07-17T02:48:09;15.22;65.55
65378;SHT31;51982;51.042;13.806;2022-07-17T02:50:34;15.22;65.48
65378;SHT31;51982;51.042;13.806;2022-07-17T02:52:59;15.21;65.47
65378;SHT31;51982;51.042;13.806;2022-07-17T02:55:25;15.12;65.49
65378;SHT31;51982;51.042;13.806;2022-07-17T02:57:50;15.12;65.48
65378;SHT31;51982;51.042;13.806;2022-07-17T03:00:17;15.11;65.43
65378;SHT31;51982;51.042;13.806;2022-07-17T03:02:44;15.07;65.44
65378;SHT31;51982;51.042;13.806;2022-07-17T03:05:09;15.07;65.39
65378;SHT31;51982;51.042;13.806;2022-07-17T03:07:35;15.03;65.43
65378;SHT31;51982;51.042;13.806;2022-07-17T03:10:00;15.01;65.47
65378;SHT31;51982;51.042;13.806;2022-07-17T03:12:26;15.01;65.50
65378;SHT31;51982;51.042;13.806;2022-07-17T03:14:51;15.00;65.54
65378;SHT31;51982;51.042;13.806;2022-07-17T03:17:16;15.03;65.47
65378;SHT31;51982;51.042;13.806;2022-07-17T03:19:41;14.98;65.54
65378;SHT31;51982;51.042;13.806;2022-07-17T03:22:07;15.00;65.54
65378;SHT31;51982;51.042;13.806;2022-07-17T03:24:32;15.00;65.57
65378;SHT31;51982;51.042;13.806;2022-07-17T03:26:57;14.91;65.63
65378;SHT31;51982;51.042;13.806;2022-07-17T03:29:23;14.90;65.60
65378;SHT31;51982;51.042;13.806;2022-07-17T03:31:48;14.90;65.57
65378;SHT31;51982;51.042;13.806;2022-07-17T03:34:13;14.87;65.56
65378;SHT31;51982;51.042;13.806;2022-07-17T03:36:39;14.91;65.54
65378;SHT31;51982;51.042;13.806;2022-07-17T03:39:05;14.88;65.50
65378;SHT31;51982;51.042;13.806;2022-07-17T03:41:30;14.91;65.44
65378;SHT31;51982;51.042;13.806;2022-07-17T03:43:55;14.88;65.50
65378;SHT31;51982;51.042;13.806;2022-07-17T03:46:21;14.87;65.42
65378;SHT31;51982;51.042;13.806;2022-07-17T03:48:47;14.87;65.36
65378;SHT31;51982;51.042;13.806;2022-07-17T03:51:12;14.88;65.18
65378;SHT31;51982;51.042;13.806;2022-07-17T03:53:37;14.88;65.11
65378;SHT31;51982;51.042;13.806;2022-07-17T03:56:03;14.87;65.09
65378;SHT31;51982;51.042;13.806;2022-07-17T03:58:30;14.83;65.21
65378;SHT31;51982;51.042;13.806;2022-07-17T04:00:55;14.81;65.22
65378;SHT31;51982;51.042;13.806;2022-07-17T04:03:20;14.76;65.29
65378;SHT31;51982;51.042;13.806;2022-07-17T04:05:45;14.73;65.33
65378;SHT31;51982;51.042;13.806;2022-07-17T04:08:11;14.76;65.22
65378;SHT31;51982;51.042;13.806;2022-07-17T04:10:37;14.77;65.25
65378;SHT31;51982;51.042;13.806;2022-07-17T04:13:03;14.80;65.14
65378;SHT31;51982;51.042;13.806;2022-07-17T04:15:28;14.81;65.07
65378;SHT31;51982;51.042;13.806;2022-07-17T04:18:12;14.81;65.04
65378;SHT31;51982;51.042;13.806;2022-07-17T04:20:37;14.84;65.02
65378;SHT31;51982;51.042;13.806;2022-07-17T04:23:02;14.84;65.05
65378;SHT31;51982;51.042;13.806;2022-07-17T04:25:30;14.81;65.09
65378;SHT31;51982;51.042;13.806;2022-07-17T04:27:55;14.79;65.10
65378;SHT31;51982;51.042;13.806;2022-07-17T04:30:20;14.80;65.08
65378;SHT31;51982;51.042;13.806;2022-07-17T04:32:45;14.83;65.09
65378;SHT31;51982;51.042;13.806;2022-07-17T04:35:11;14.83;65.07
65378;SHT31;51982;51.042;13.806;2022-07-17T04:37:36;14.81;65.06
65378;SHT31;51982;51.042;13.806;2022-07-17T04:40:01;14.84;65.05
65378;SHT31;51982;51.042;13.806;2022-07-17T04:42:26;14.81;65.13
65378;SHT31;51982;51.042;13.806;2022-07-17T04:44:51;14.84;65.18
65378;SHT31;51982;51.042;13.806;2022-07-17T04:47:17;14.85;65.28
65378;SHT31;51982;51.042;13.806;2022-07-17T04:49:42;14.84;65.48
65378;SHT31;51982;51.042;13.806;2022-07-17T04:52:07;14.87;65.44
65378;SHT31;51982;51.042;13.806;2022-07-17T04:54:32;14.94;65.35
65378;SHT31;51982;51.042;13.806;2022-07-17T04:56:58;14.93;65.27
65378;SHT31;51982;51.042;13.806;2022-07-17T04:59:23;14.93;65.27
65378;SHT31;51982;51.042;13.806;2022-07-17T05:01:48;15.01;65.17
65378;SHT31;51982;51.042;13.806;2022-07-17T05:04:13;15.05;64.95
65378;SHT31;51982;51.042;13.806;2022-07-17T05:06:39;15.15;64.74
65378;SHT31;51982;51.042;13.806;2022-07-17T05:09:04;15.27;64.46
65378;SHT31;51982;51.042;13.806;2022-07-17T05:11:29;15.31;64.34
65378;SHT31;51982;51.042;13.806;2022-07-17T05:13:54;15.34;64.28
65378;SHT31;51982;51.042;13.806;2022-07-17T05:16:20;15.34;64.30
65378;SHT31;51982;51.042;13.806;2022-07-17T05:18:45;15.39;64.23
65378;SHT31;51982;51.042;13.806;2022-07-17T05:21:10;15.44;64.12
65378;SHT31;51982;51.042;13.806;2022-07-17T05:23:35;15.55;63.83
65378;SHT31;51982;51.042;13.806;2022-07-17T05:26:01;15.56;63.65
65378;SHT31;51982;51.042;13.806;2022-07-17T05:28:27;15.61;63.68
65378;SHT31;51982;51.042;13.806;2022-07-17T05:30:52;15.66;63.69
65378;SHT31;51982;51.042;13.806;2022-07-17T05:33:17;15.72;63.60
65378;SHT31;51982;51.042;13.806;2022-07-17T05:35:42;15.73;63.49
65378;SHT31;51982;51.042;13.806;2022-07-17T05:38:10;15.75;63.25
65378;SHT31;51982;51.042;13.806;2022-07-17T05:40:35;15.76;63.11
65378;SHT31;51982;51.042;13.806;2022-07-17T05:43:00;15.86;63.02
65378;SHT31;51982;51.042;13.806;2022-07-17T05:45:26;15.89;62.79
65378;SHT31;51982;51.042;13.806;2022-07-17T05:47:51;15.93;62.71
65378;SHT31;51982;51.042;13.806;2022-07-17T05:50:16;16.03;62.64
65378;SHT31;51982;51.042;13.806;2022-07-17T05:52:41;16.10;62.31
65378;SHT31;51982;51.042;13.806;2022-07-17T05:55:07;16.21;62.01
65378;SHT31;51982;51.042;13.806;2022-07-17T05:57:33;16.24;62.09
65378;SHT31;51982;51.042;13.806;2022-07-17T05:59:58;16.30;62.21
65378;SHT31;51982;51.042;13.806;2022-07-17T06:02:23;16.40;62.05
65378;SHT31;51982;51.042;13.806;2022-07-17T06:04:48;16.43;61.97
65378;SHT31;51982;51.042;13.806;2022-07-17T06:07:14;16.54;61.85
65378;SHT31;51982;51.042;13.806;2022-07-17T06:09:39;16.60;61.69
65378;SHT31;51982;51.042;13.806;2022-07-17T06:12:04;17.01;61.08
65378;SHT31;51982;51.042;13.806;2022-07-17T06:14:30;17.63;59.29
65378;SHT31;51982;51.042;13.806;2022-07-17T06:16:55;17.52;59.64
65378;SHT31;51982;51.042;13.806;2022-07-17T06:19:20;17.47;60.01
65378;SHT31;51982;51.042;13.806;2022-07-17T06:21:45;17.43;59.98
65378;SHT31;51982;51.042;13.806;2022-07-17T06:24:11;17.38;60.07
65378;SHT31;51982;51.042;13.806;2022-07-17T06:26:36;17.36;60.16
65378;SHT31;51982;51.042;13.806;2022-07-17T06:29:01;17.35;60.03
65378;SHT31;51982;51.042;13.806;2022-07-17T06:31:26;17.50;59.87
65378;SHT31;51982;51.042;13.806;2022-07-17T06:33:52;17.74;59.31
65378;SHT31;51982;51.042;13.806;2022-07-17T06:36:17;17.66;59.62
65378;SHT31;51982;51.042;13.806;2022-07-17T06:38:42;17.54;59.76
65378;SHT31;51982;51.042;13.806;2022-07-17T06:41:07;17.50;59.79
65378;SHT31;51982;51.042;13.806;2022-07-17T06:43:33;17.57;59.51
65378;SHT31;51982;51.042;13.806;2022-07-17T06:45:58;17.53;59.43
65378;SHT31;51982;51.042;13.806;2022-07-17T06:48:23;17.57;59.42
65378;SHT31;51982;51.042;13.806;2022-07-17T06:50:49;17.57;59.30
65378;SHT31;51982;51.042;13.806;2022-07-17T06:53:14;17.65;59.24
65378;SHT31;51982;51.042;13.806;2022-07-17T06:55:40;17.93;58.99
65378;SHT31;51982;51.042;13.806;2022-07-17T06:58:05;18.66;57.20
65378;SHT31;51982;51.042;13.806;2022-07-17T07:00:31;18.88;56.70
65378;SHT31;51982;51.042;13.806;2022-07-17T07:02:56;18.72;56.83
65378;SHT31;51982;51.042;13.806;2022-07-17T07:05:21;18.96;56.16
65378;SHT31;51982;51.042;13.806;2022-07-17T07:07:47;19.53;55.09
65378;SHT31;51982;51.042;13.806;2022-07-17T07:10:12;23.79;47.88
65378;SHT31;51982;51.042;13.806;2022-07-17T07:12:38;26.28;44.03
65378;SHT31;51982;51.042;13.806;2022-07-17T07:15:03;28.18;41.59
65378;SHT31;51982;51.042;13.806;2022-07-17T07:17:29;28.83;40.68
65378;SHT31;51982;51.042;13.806;2022-07-17T07:19:56;28.68;40.74
65378;SHT31;51982;51.042;13.806;2022-07-17T07:22:22;27.51;42.36
65378;SHT31;51982;51.042;13.806;2022-07-17T07:24:47;26.16;44.06
65378;SHT31;51982;51.042;13.806;2022-07-17T07:27:12;25.42;45.30
65378;SHT31;51982;51.042;13.806;2022-07-17T07:29:37;25.83;44.42
65378;SHT31;51982;51.042;13.806;2022-07-17T07:32:03;25.45;45.18
65378;SHT31;51982;51.042;13.806;2022-07-17T07:34:28;24.26;46.87
65378;SHT31;51982;51.042;13.806;2022-07-17T07:36:54;23.42;48.26
65378;SHT31;51982;51.042;13.806;2022-07-17T07:39:19;22.84;49.23
65378;SHT31;51982;51.042;13.806;2022-07-17T07:41:44;22.39;49.78
65378;SHT31;51982;51.042;13.806;2022-07-17T07:44:10;22.22;50.32
65378;SHT31;51982;51.042;13.806;2022-07-17T07:46:35;21.86;50.70
65378;SHT31;51982;51.042;13.806;2022-07-17T07:49:00;21.54;51.00
65378;SHT31;51982;51.042;13.806;2022-07-17T07:51:29;21.38;51.57
65378;SHT31;51982;51.042;13.806;2022-07-17T07:53:54;21.34;51.77
65378;SHT31;51982;51.042;13.806;2022-07-17T07:56:19;21.35;51.71
65378;SHT31;51982;51.042;13.806;2022-07-17T07:58:45;21.14;52.07
65378;SHT31;51982;51.042;13.806;2022-07-17T08:01:10;21.28;51.80
65378;SHT31;51982;51.042;13.806;2022-07-17T08:03:35;21.59;51.44
65378;SHT31;51982;51.042;13.806;2022-07-17T08:06:00;21.69;51.32
65378;SHT31;51982;51.042;13.806;2022-07-17T08:08:26;21.75;51.36
65378;SHT31;51982;51.042;13.806;2022-07-17T08:10:51;21.79;51.37
65378;SHT31;51982;51.042;13.806;2022-07-17T08:13:17;21.79;51.45
65378;SHT31;51982;51.042;13.806;2022-07-17T08:15:42;21.81;51.31
65378;SHT31;51982;51.042;13.806;2022-07-17T08:18:07;21.81;51.30
65378;SHT31;51982;51.042;13.806;2022-07-17T08:20:32;21.86;51.35
65378;SHT31;51982;51.042;13.806;2022-07-17T08:22:58;21.79;51.42
65378;SHT31;51982;51.042;13.806;2022-07-17T08:25:23;21.89;51.37
65378;SHT31;51982;51.042;13.806;2022-07-17T08:27:48;21.89;51.32
65378;SHT31;51982;51.042;13.806;2022-07-17T08:30:14;21.72;51.40
65378;SHT31;51982;51.042;13.806;2022-07-17T08:32:40;21.82;51.44
65378;SHT31;51982;51.042;13.806;2022-07-17T08:35:06;21.91;51.28
65378;SHT31;51982;51.042;13.806;2022-07-17T08:37:51;21.86;51.38
65378;SHT31;51982;51.042;13.806;2022-07-17T08:40:25;21.78;51.17
65378;SHT31;51982;51.042;13.806;2022-07-17T08:42:51;21.78;51.55
65378;SHT31;51982;51.042;13.806;2022-07-17T08:45:17;21.77;51.64
65378;SHT31;51982;51.042;13.806;2022-07-17T08:47:42;21.78;51.51
65378;SHT31;51982;51.042;13.806;2022-07-17T08:50:10;21.55;51.67
65378;SHT31;51982;51.042;13.806;2022-07-17T08:52:37;21.48;51.44
65378;SHT31;51982;51.042;13.806;2022-07-17T08:55:02;21.69;51.34
65378;SHT31;51982;51.042;13.806;2022-07-17T08:57:28;21.81;51.09
65378;SHT31;51982;51.042;13.806;2022-07-17T08:59:53;21.89;50.92
65378;SHT31;51982;51.042;13.806;2022-07-17T09:02:19;21.98;50.91
65378;SHT31;51982;51.042;13.806;2022-07-17T09:04:55;21.95;50.78
65378;SHT31;51982;51.042;13.806;2022-07-17T09:07:21;22.09;50.87
65378;SHT31;51982;51.042;13.806;2022-07-17T09:09:50;22.02;50.86
65378;SHT31;51982;51.042;13.806;2022-07-17T09:12:16;21.94;51.10
65378;SHT31;51982;51.042;13.806;2022-07-17T09:14:41;22.02;51.12
65378;SHT31;51982;51.042;13.806;2022-07-17T09:17:08;22.09;51.22
65378;SHT31;51982;51.042;13.806;2022-07-17T09:19:45;22.05;50.97
65378;SHT31;51982;51.042;13.806;2022-07-17T09:22:13;22.06;50.84
65378;SHT31;51982;51.042;13.806;2022-07-17T09:24:42;22.13;50.88
65378;SHT31;51982;51.042;13.806;2022-07-17T09:27:08;22.03;50.54
65378;SHT31;51982;51.042;13.806;2022-07-17T09:29:35;21.99;50.70
65378;SHT31;51982;51.042;13.806;2022-07-17T09:32:19;22.08;50.60
65378;SHT31;51982;51.042;13.806;2022-07-17T09:34:49;22.01;50.68
65378;SHT31;51982;51.042;13.806;2022-07-17T09:37:15;21.77;50.87
65378;SHT31;51982;51.042;13.806;2022-07-17T09:39:40;21.78;51.10
65378;SHT31;51982;51.042;13.806;2022-07-17T09:42:06;21.71;51.07
65378;SHT31;51982;51.042;13.806;2022-07-17T09:44:32;21.81;50.94
65378;SHT31;51982;51.042;13.806;2022-07-17T09:46:58;21.77;50.83
65378;SHT31;51982;51.042;13.806;2022-07-17T09:49:26;21.86;50.63
65378;SHT31;51982;51.042;13.806;2022-07-17T09:51:52;22.02;50.42
65378;SHT31;51982;51.042;13.806;2022-07-17T09:54:21;22.16;50.13
65378;SHT31;51982;51.042;13.806;2022-07-17T09:56:51;22.25;49.65
65378;SHT31;51982;51.042;13.806;2022-07-17T09:59:18;22.37;49.49
65378;SHT31;51982;51.042;13.806;2022-07-17T10:01:45;22.39;49.38
65378;SHT31;51982;51.042;13.806;2022-07-17T10:04:15;22.35;49.55
65378;SHT31;51982;51.042;13.806;2022-07-17T10:06:41;22.40;49.40
65378;SHT31;51982;51.042;13.806;2022-07-17T10:09:09;22.33;49.38
65378;SHT31;51982;51.042;13.806;2022-07-17T10:11:37;22.22;49.56
65378;SHT31;51982;51.042;13.806;2022-07-17T10:14:06;22.17;49.60
65378;SHT31;51982;51.042;13.806;2022-07-17T10:16:36;22.20;49.51
65378;SHT31;51982;51.042;13.806;2022-07-17T10:19:19;22.12;48.93
65378;SHT31;51982;51.042;13.806;2022-07-17T10:22:04;22.23;48.73
65378;SHT31;51982;51.042;13.806;2022-07-17T10:24:31;22.28;49.02
65378;SHT31;51982;51.042;13.806;2022-07-17T10:26:57;22.40;49.06
65378;SHT31;51982;51.042;13.806;2022-07-17T10:29:36;22.49;48.89
65378;SHT31;51982;51.042;13.806;2022-07-17T10:32:14;22.50;47.83
65378;SHT31;51982;51.042;13.806;2022-07-17T10:34:48;22.63;48.21
65378;SHT31;51982;51.042;13.806;2022-07-17T10:37:17;22.66;47.01
65378;SHT31;51982;51.042;13.806;2022-07-17T10:39:55;22.77;47.61
65378;SHT31;51982;51.042;13.806;2022-07-17T10:45:17;22.64;46.77
65378;SHT31;51982;51.042;13.806;2022-07-17T10:47:48;22.74;47.00
65378;SHT31;51982;51.042;13.806;2022-07-17T10:50:15;22.77;47.10
65378;SHT31;51982;51.042;13.806;2022-07-17T10:52:41;22.84;47.04
65378;SHT31;51982;51.042;13.806;2022-07-17T10:55:22;23.07;46.90
65378;SHT31;51982;51.042;13.806;2022-07-17T10:57:48;23.17;46.70
65378;SHT31;51982;51.042;13.806;2022-07-17T11:00:15;23.22;46.36
65378;SHT31;51982;51.042;13.806;2022-07-17T11:02:40;23.27;46.51
65378;SHT31;51982;51.042;13.806;2022-07-17T11:05:10;23.29;46.29
65378;SHT31;51982;51.042;13.806;2022-07-17T11:07:35;23.44;46.61
65378;SHT31;51982;51.042;13.806;2022-07-17T11:10:07;23.39;46.49
65378;SHT31;51982;51.042;13.806;2022-07-17T11:12:40;23.39;46.11
65378;SHT31;51982;51.042;13.806;2022-07-17T11:15:06;23.34;46.57
65378;SHT31;51982;51.042;13.806;2022-07-17T11:17:31;23.14;46.65
65378;SHT31;51982;51.042;13.806;2022-07-17T11:19:59;23.21;46.33
65378;SHT31;51982;51.042;13.806;2022-07-17T11:22:25;23.32;46.42
65378;SHT31;51982;51.042;13.806;2022-07-17T11:24:52;23.25;46.03
65378;SHT31;51982;51.042;13.806;2022-07-17T11:27:20;23.18;45.94
65378;SHT31;51982;51.042;13.806;2022-07-17T11:29:47;23.25;46.09
65378;SHT31;51982;51.042;13.806;2022-07-17T11:32:13;23.24;45.94
65378;SHT31;51982;51.042;13.806;2022-07-17T11:34:43;23.04;46.06
65378;SHT31;51982;51.042;13.806;2022-07-17T11:37:09;23.14;45.33
65378;SHT31;51982;51.042;13.806;2022-07-17T11:39:42;23.24;44.87
65378;SHT31;51982;51.042;13.806;2022-07-17T11:42:10;23.32;44.85
65378;SHT31;51982;51.042;13.806;2022-07-17T11:44:36;23.34;45.00
65378;SHT31;51982;51.042;13.806;2022-07-17T11:47:01;23.47;44.90
65378;SHT31;51982;51.042;13.806;2022-07-17T11:49:29;23.58;44.71
65378;SHT31;51982;51.042;13.806;2022-07-17T11:51:56;23.61;44.93
65378;SHT31;51982;51.042;13.806;2022-07-17T11:54:23;23.47;44.83
65378;SHT31;51982;51.042;13.806;2022-07-17T11:56:56;23.49;44.68
65378;SHT31;51982;51.042;13.806;2022-07-17T11:59:30;23.49;44.42
65378;SHT31;51982;51.042;13.806;2022-07-17T12:01:56;23.57;44.77
65378;SHT31;51982;51.042;13.806;2022-07-17T12:04:22;23.61;44.75
65378;SHT31;51982;51.042;13.806;2022-07-17T12:06:58;23.65;43.75
65378;SHT31;51982;51.042;13.806;2022-07-17T12:09:27;23.75;44.21
65378;SHT31;51982;51.042;13.806;2022-07-17T12:11:52;23.78;44.06
65378;SHT31;51982;51.042;13.806;2022-07-17T12:14:17;23.85;44.18
65378;SHT31;51982;51.042;13.806;2022-07-17T12:16:43;23.83;44.33
65378;SHT31;51982;51.042;13.806;2022-07-17T12:19:17;23.82;44.04
65378;SHT31;51982;51.042;13.806;2022-07-17T12:21:51;23.82;44.51
65378;SHT31;51982;51.042;13.806;2022-07-17T12:24:21;23.82;44.41
65378;SHT31;51982;51.042;13.806;2022-07-17T12:26:47;23.76;43.86
65378;SHT31;51982;51.042;13.806;2022-07-17T12:29:12;23.72;43.53
65378;SHT31;51982;51.042;13.806;2022-07-17T12:31:37;23.65;43.26
65378;SHT31;51982;51.042;13.806;2022-07-17T12:34:03;23.59;43.41
65378;SHT31;51982;51.042;13.806;2022-07-17T12:36:28;23.58;43.60
65378;SHT31;51982;51.042;13.806;2022-07-17T12:38:57;23.63;43.89
65378;SHT31;51982;51.042;13.806;2022-07-17T12:41:22;23.69;43.99
65378;SHT31;51982;51.042;13.806;2022-07-17T12:43:47;23.70;44.35
65378;SHT31;51982;51.042;13.806;2022-07-17T12:46:16;23.70;44.54
65378;SHT31;51982;51.042;13.806;2022-07-17T12:48:48;23.68;44.32
65378;SHT31;51982;51.042;13.806;2022-07-17T12:51:13;23.70;44.39
65378;SHT31;51982;51.042;13.806;2022-07-17T12:53:43;23.57;43.43
65378;SHT31;51982;51.042;13.806;2022-07-17T12:56:08;23.59;42.48
65378;SHT31;51982;51.042;13.806;2022-07-17T12:58:35;23.63;42.47
65378;SHT31;51982;51.042;13.806;2022-07-17T13:01:00;23.62;42.24
65378;SHT31;51982;51.042;13.806;2022-07-17T13:03:25;23.54;41.41
65378;SHT31;51982;51.042;13.806;2022-07-17T13:05:51;23.48;40.96
65378;SHT31;51982;51.042;13.806;2022-07-17T13:08:16;23.42;40.99
65378;SHT31;51982;51.042;13.806;2022-07-17T13:10:42;23.54;41.36
65378;SHT31;51982;51.042;13.806;2022-07-17T13:13:07;23.57;41.56
65378;SHT31;51982;51.042;13.806;2022-07-17T13:15:33;23.58;41.38
65378;SHT31;51982;51.042;13.806;2022-07-17T13:17:58;23.59;41.67
65378;SHT31;51982;51.042;13.806;2022-07-17T13:20:25;23.63;41.69
65378;SHT31;51982;51.042;13.806;2022-07-17T13:22:50;23.65;41.74
65378;SHT31;51982;51.042;13.806;2022-07-17T13:25:16;23.69;42.02
65378;SHT31;51982;51.042;13.806;2022-07-17T13:27:41;23.72;41.81
65378;SHT31;51982;51.042;13.806;2022-07-17T13:30:08;23.70;41.97
65378;SHT31;51982;51.042;13.806;2022-07-17T13:32:33;23.75;41.91
65378;SHT31;51982;51.042;13.806;2022-07-17T13:34:58;23.75;41.84
65378;SHT31;51982;51.042;13.806;2022-07-17T13:37:23;23.73;41.96
65378;SHT31;51982;51.042;13.806;2022-07-17T13:39:49;23.78;41.95
65378;SHT31;51982;51.042;13.806;2022-07-17T13:42:14;23.80;41.51
65378;SHT31;51982;51.042;13.806;2022-07-17T13:44:41;23.83;41.40
65378;SHT31;51982;51.042;13.806;2022-07-17T13:47:06;23.82;41.32
65378;SHT31;51982;51.042;13.806;2022-07-17T13:49:31;23.85;41.43
65378;SHT31;51982;51.042;13.806;2022-07-17T13:51:56;23.83;41.92
65378;SHT31;51982;51.042;13.806;2022-07-17T13:54:22;23.83;42.18
65378;SHT31;51982;51.042;13.806;2022-07-17T13:56:47;23.82;42.42
65378;SHT31;51982;51.042;13.806;2022-07-17T13:59:12;23.85;42.19
65378;SHT31;51982;51.042;13.806;2022-07-17T14:01:38;23.89;42.24
65378;SHT31;51982;51.042;13.806;2022-07-17T14:04:03;23.88;42.06
65378;SHT31;51982;51.042;13.806;2022-07-17T14:06:28;23.93;42.19
65378;SHT31;51982;51.042;13.806;2022-07-17T14:08:54;23.90;42.05
65378;SHT31;51982;51.042;13.806;2022-07-17T14:11:19;23.93;42.08
65378;SHT31;51982;51.042;13.806;2022-07-17T14:13:45;23.93;42.42
65378;SHT31;51982;51.042;13.806;2022-07-17T14:16:10;23.99;42.44
65378;SHT31;51982;51.042;13.806;2022-07-17T14:18:35;23.99;42.04
65378;SHT31;51982;51.042;13.806;2022-07-17T14:21:01;24.05;41.95
65378;SHT31;51982;51.042;13.806;2022-07-17T14:23:26;24.09;41.32
65378;SHT31;51982;51.042;13.806;2022-07-17T14:25:52;24.10;40.99
65378;SHT31;51982;51.042;13.806;2022-07-17T14:28:17;24.12;40.75
65378;SHT31;51982;51.042;13.806;2022-07-17T14:30:42;24.08;40.18
65378;SHT31;51982;51.042;13.806;2022-07-17T14:33:08;24.06;40.47
65378;SHT31;51982;51.042;13.806;2022-07-17T14:35:33;24.06;40.31
65378;SHT31;51982;51.042;13.806;2022-07-17T14:37:59;24.13;40.10
65378;SHT31;51982;51.042;13.806;2022-07-17T14:40:25;24.13;38.82
65378;SHT31;51982;51.042;13.806;2022-07-17T14:42:50;24.12;38.33
65378;SHT31;51982;51.042;13.806;2022-07-17T14:45:15;24.13;38.28
65378;SHT31;51982;51.042;13.806;2022-07-17T14:47:40;24.17;38.28
65378;SHT31;51982;51.042;13.806;2022-07-17T14:50:07;24.19;38.61
65378;SHT31;51982;51.042;13.806;2022-07-17T14:52:33;24.17;39.15
65378;SHT31;51982;51.042;13.806;2022-07-17T14:54:58;24.17;39.37
65378;SHT31;51982;51.042;13.806;2022-07-17T14:57:23;24.21;39.56
65378;SHT31;51982;51.042;13.806;2022-07-17T14:59:48;24.24;39.85
65378;SHT31;51982;51.042;13.806;2022-07-17T15:02:14;24.26;39.44
65378;SHT31;51982;51.042;13.806;2022-07-17T15:04:39;24.30;39.53
65378;SHT31;51982;51.042;13.806;2022-07-17T15:07:05;24.29;39.50
65378;SHT31;51982;51.042;13.806;2022-07-17T15:09:30;24.29;39.32
65378;SHT31;51982;51.042;13.806;2022-07-17T15:11:56;24.29;39.13